Time;durP1;ratioP1;P1;durP2;ratioP2;P2;SDS_P1;SDS_P2;PMS_P1;PMS_P2;Temp;Humidity;BMP_temperature;BMP_pressure;BME280_temperature;BME280_humidity;BME280_pressure;Samples;Min_cycle;Max_cycle;Signal;HPM_P1;HPM_P2
2022/04/29 00:02:07;;;;;;;9.75;4.75;;;;;;;;;;5018495;28;93725;-75
2022/04/29 00:04:37;;;;;;;5.30;4.35;;;;;;;;;;5020123;28;94396;-75
2022/04/29 00:07:06;;;;;;;8.70;5.13;;;;;;;;;;5017200;28;94015;-75
2022/04/29 00:09:33;;;;;;;5.32;4.80;;;;;;;;;;5019612;28;93898;-75
2022/04/29 00:12:02;;;;;;;14.20;5.50;;;;;;;;;;5018897;28;94208;-75
2022/04/29 00:14:29;;;;;;;11.48;5.68;;;;;;;;;;5014551;28;93313;-75
2022/04/29 00:16:56;;;;;;;8.80;5.20;;;;;;;;;;5017335;28;94960;-75
2022/04/29 00:19:22;;;;;;;13.23;5.38;;;;;;;;;;5019098;28;94433;-75
2022/04/29 00:21:49;;;;;;;11.13;5.63;;;;;;;;;;5017426;28;93462;-75
2022/04/29 00:24:16;;;;;;;15.13;5.72;;;;;;;;;;5013729;27;94246;-75
2022/04/29 00:26:42;;;;;;;12.70;6.53;;;;;;;;;;5017601;28;92814;-75
2022/04/29 00:29:09;;;;;;;13.18;5.53;;;;;;;;;;5018048;28;94369;-75
2022/04/29 00:31:39;;;;;;;13.80;5.15;;;;;;;;;;5000488;28;94226;-74
2022/04/29 00:34:06;;;;;;;9.80;6.60;;;;;;;;;;5015977;28;93574;-75
2022/04/29 00:36:32;;;;;;;8.38;5.78;;;;;;;;;;5021063;28;93900;-75
2022/04/29 00:38:59;;;;;;;16.48;5.63;;;;;;;;;;5014503;28;94452;-75
2022/04/29 00:41:26;;;;;;;12.73;6.25;;;;;;;;;;4992514;28;95675;-75
2022/04/29 00:44:05;;;;;;;12.80;5.10;;;;;;;;;;5016642;28;93179;-75
2022/04/29 00:46:32;;;;;;;12.63;6.10;;;;;;;;;;5016126;28;93021;-75
2022/04/29 00:48:59;;;;;;;9.68;5.97;;;;;;;;;;4993355;28;94325;-75
2022/04/29 00:51:25;;;;;;;17.02;6.88;;;;;;;;;;5022207;28;93206;-75
2022/04/29 00:53:53;;;;;;;9.70;6.18;;;;;;;;;;5020564;28;93019;-75
2022/04/29 00:56:21;;;;;;;11.65;6.63;;;;;;;;;;4998174;28;94162;-75
2022/04/29 00:58:50;;;;;;;15.60;6.50;;;;;;;;;;5014117;28;92261;-75
2022/04/29 01:01:20;;;;;;;13.07;7.18;;;;;;;;;;5013576;28;94447;-74
2022/04/29 01:03:48;;;;;;;11.55;6.50;;;;;;;;;;5005652;28;95729;-74
2022/04/29 01:06:14;;;;;;;7.30;6.28;;;;;;;;;;5005456;28;94967;-74
2022/04/29 01:08:41;;;;;;;14.07;6.43;;;;;;;;;;5012806;28;96408;-74
2022/04/29 01:11:07;;;;;;;16.08;7.03;;;;;;;;;;5005628;28;95739;-74
2022/04/29 01:13:35;;;;;;;12.55;7.03;;;;;;;;;;5002728;28;94097;-75
2022/04/29 01:16:01;;;;;;;7.97;5.53;;;;;;;;;;5006765;28;95476;-74
2022/04/29 01:18:28;;;;;;;14.95;7.53;;;;;;;;;;5020224;28;93231;-74
2022/04/29 01:21:03;;;;;;;8.48;5.30;;;;;;;;;;5003281;28;92601;-73
2022/04/29 01:23:29;;;;;;;8.57;6.45;;;;;;;;;;5018952;28;95294;-74
2022/04/29 01:25:55;;;;;;;12.98;6.43;;;;;;;;;;5021056;28;93145;-73
2022/04/29 01:28:24;;;;;;;12.30;6.57;;;;;;;;;;5003235;28;95415;-74
2022/04/29 01:30:53;;;;;;;13.63;6.57;;;;;;;;;;5001890;28;98833;-74
2022/04/29 01:33:20;;;;;;;13.45;7.28;;;;;;;;;;5015959;28;94635;-73
2022/04/29 01:35:46;;;;;;;12.45;7.45;;;;;;;;;;4997116;28;94817;-74
2022/04/29 01:38:15;;;;;;;11.77;5.65;;;;;;;;;;5000270;28;95438;-74
2022/04/29 01:40:42;;;;;;;16.45;7.53;;;;;;;;;;5001055;28;92573;-74
2022/04/29 01:43:15;;;;;;;12.05;6.60;;;;;;;;;;5002358;28;94873;-74
2022/04/29 01:45:41;;;;;;;14.02;6.50;;;;;;;;;;5016957;28;93921;-74
2022/04/29 01:48:21;;;;;;;14.43;7.43;;;;;;;;;;5002360;28;93153;-74
2022/04/29 01:50:56;;;;;;;12.10;5.93;;;;;;;;;;5015194;28;93516;-74
2022/04/29 01:53:23;;;;;;;11.55;6.82;;;;;;;;;;5001011;28;94118;-74
2022/04/29 01:55:50;;;;;;;7.22;6.53;;;;;;;;;;4997758;28;95319;-74
2022/04/29 01:58:16;;;;;;;13.52;7.20;;;;;;;;;;4996551;28;95653;-74
2022/04/29 02:00:43;;;;;;;10.85;7.03;;;;;;;;;;4995759;28;94281;-74
2022/04/29 02:03:10;;;;;;;10.73;7.13;;;;;;;;;;5000277;28;94970;-74
2022/04/29 02:05:37;;;;;;;19.60;7.43;;;;;;;;;;5016059;28;96151;-74
2022/04/29 02:08:03;;;;;;;11.20;7.00;;;;;;;;;;5003654;28;94989;-74
2022/04/29 02:10:30;;;;;;;10.43;7.57;;;;;;;;;;5001880;28;93131;-74
2022/04/29 02:12:56;;;;;;;18.88;7.03;;;;;;;;;;4997685;28;92920;-74
2022/04/29 02:15:26;;;;;;;12.13;6.60;;;;;;;;;;5015400;28;94347;-75
2022/04/29 02:17:54;;;;;;;11.70;6.82;;;;;;;;;;4998401;28;95248;-74
2022/04/29 02:20:24;;;;;;;14.07;7.57;;;;;;;;;;4992713;28;95099;-75
2022/04/29 02:22:52;;;;;;;19.60;6.57;;;;;;;;;;5003066;28;95678;-74
2022/04/29 02:25:19;;;;;;;15.30;7.43;;;;;;;;;;5012027;28;92941;-74
2022/04/29 02:27:46;;;;;;;11.70;6.28;;;;;;;;;;4995968;28;93889;-74
2022/04/29 02:30:13;;;;;;;13.10;6.25;;;;;;;;;;5001274;28;94593;-74
2022/04/29 02:32:41;;;;;;;13.93;7.03;;;;;;;;;;4995238;28;92526;-74
2022/04/29 02:35:08;;;;;;;13.27;7.18;;;;;;;;;;5017961;28;92934;-74
2022/04/29 02:37:34;;;;;;;15.48;7.13;;;;;;;;;;5015379;28;92262;-74
2022/04/29 02:40:00;;;;;;;10.07;6.93;;;;;;;;;;5002896;28;94089;-74
2022/04/29 02:42:29;;;;;;;8.40;6.30;;;;;;;;;;4997058;28;95079;-74
2022/04/29 02:44:56;;;;;;;12.93;7.15;;;;;;;;;;4993949;28;95434;-74
2022/04/29 02:47:27;;;;;;;10.25;6.63;;;;;;;;;;4998581;28;93315;-74
2022/04/29 02:49:53;;;;;;;16.83;6.95;;;;;;;;;;5005012;28;95635;-74
2022/04/29 02:52:20;;;;;;;18.15;7.50;;;;;;;;;;5005061;28;95546;-74
2022/04/29 02:54:47;;;;;;;15.30;6.43;;;;;;;;;;5000749;28;93380;-74
2022/04/29 02:57:24;;;;;;;21.90;8.20;;;;;;;;;;5006984;28;94339;-74
2022/04/29 02:59:50;;;;;;;15.48;6.78;;;;;;;;;;5000993;28;93124;-74
2022/04/29 03:02:17;;;;;;;10.90;6.45;;;;;;;;;;4998087;28;93888;-74
2022/04/29 03:04:44;;;;;;;14.57;6.65;;;;;;;;;;5017364;28;95378;-74
2022/04/29 03:07:10;;;;;;;10.88;6.28;;;;;;;;;;5004236;28;94071;-74
2022/04/29 03:09:49;;;;;;;11.38;7.45;;;;;;;;;;4996298;28;95583;-74
2022/04/29 03:12:19;;;;;;;18.08;7.25;;;;;;;;;;5001006;28;95613;-74
2022/04/29 03:14:51;;;;;;;13.18;7.05;;;;;;;;;;5008045;28;92715;-74
2022/04/29 03:20:04;;;;;;;20.80;7.38;;;;;;;;;;5018422;28;94109;-74
2022/04/29 03:22:30;;;;;;;19.80;7.45;;;;;;;;;;5002579;28;94321;-74
2022/04/29 03:24:57;;;;;;;15.55;6.32;;;;;;;;;;5003207;28;95841;-74
2022/04/29 03:27:24;;;;;;;13.63;6.63;;;;;;;;;;4998494;28;91950;-74
2022/04/29 03:29:50;;;;;;;9.77;6.43;;;;;;;;;;5008005;28;94381;-74
2022/04/29 03:32:18;;;;;;;16.52;7.05;;;;;;;;;;5002217;28;96071;-74
2022/04/29 03:35:02;;;;;;;17.00;7.25;;;;;;;;;;4997029;28;94924;-74
2022/04/29 03:37:29;;;;;;;14.70;7.20;;;;;;;;;;5021482;28;97151;-74
2022/04/29 03:39:55;;;;;;;10.68;7.10;;;;;;;;;;5004356;28;93507;-74
2022/04/29 03:42:21;;;;;;;12.88;5.82;;;;;;;;;;5002849;28;95243;-74
2022/04/29 03:44:49;;;;;;;10.50;6.35;;;;;;;;;;5005702;28;95670;-74
2022/04/29 03:47:17;;;;;;;16.00;7.25;;;;;;;;;;5006418;28;94290;-74
2022/04/29 03:50:13;;;;;;;15.25;6.75;;;;;;;;;;5018329;28;92801;-74
2022/04/29 03:53:00;;;;;;;13.32;6.18;;;;;;;;;;5004509;28;94720;-74
2022/04/29 03:55:28;;;;;;;8.45;7.07;;;;;;;;;;5003614;28;93314;-74
2022/04/29 03:57:56;;;;;;;19.83;6.85;;;;;;;;;;5004410;28;93942;-74
2022/04/29 04:00:24;;;;;;;16.48;6.85;;;;;;;;;;4992505;28;96835;-74
2022/04/29 04:02:52;;;;;;;12.77;7.25;;;;;;;;;;4997349;28;97913;-74
2022/04/29 04:05:23;;;;;;;13.05;6.75;;;;;;;;;;5017004;28;95256;-74
2022/04/29 04:07:50;;;;;;;9.95;6.88;;;;;;;;;;5002442;28;93370;-74
2022/04/29 04:10:26;;;;;;;10.23;6.68;;;;;;;;;;5007911;28;92801;-74
2022/04/29 04:12:52;;;;;;;14.68;6.65;;;;;;;;;;5002335;28;95121;-74
2022/04/29 04:15:39;;;;;;;18.42;7.45;;;;;;;;;;5017723;27;94293;-74
2022/04/29 04:18:05;;;;;;;12.00;7.57;;;;;;;;;;5000290;28;93180;-74
2022/04/29 04:20:31;;;;;;;18.38;7.50;;;;;;;;;;4997079;28;95869;-74
2022/04/29 04:23:03;;;;;;;16.98;6.47;;;;;;;;;;5000753;28;94052;-74
2022/04/29 04:25:30;;;;;;;12.55;7.70;;;;;;;;;;5003246;28;97531;-74
2022/04/29 04:27:58;;;;;;;12.98;7.38;;;;;;;;;;5000678;28;94369;-74
2022/04/29 04:30:41;;;;;;;13.65;6.75;;;;;;;;;;5004089;28;93468;-74
2022/04/29 04:33:08;;;;;;;18.38;7.05;;;;;;;;;;5001347;28;95834;-74
2022/04/29 04:35:35;;;;;;;10.95;6.70;;;;;;;;;;5013746;28;92576;-74
2022/04/29 04:38:01;;;;;;;21.30;7.18;;;;;;;;;;5019355;28;93744;-74
2022/04/29 04:40:42;;;;;;;16.48;6.82;;;;;;;;;;5011558;28;95712;-74
2022/04/29 04:43:16;;;;;;;15.65;7.10;;;;;;;;;;5009220;28;93404;-74
2022/04/29 04:45:42;;;;;;;11.98;7.00;;;;;;;;;;5001167;28;94001;-74
2022/04/29 04:48:43;;;;;;;15.85;7.18;;;;;;;;;;5019655;28;93020;-74
2022/04/29 04:51:29;;;;;;;12.48;6.47;;;;;;;;;;5016110;28;96725;-74
2022/04/29 04:54:00;;;;;;;22.30;7.20;;;;;;;;;;5000505;28;94100;-74
2022/04/29 04:56:28;;;;;;;10.05;6.38;;;;;;;;;;4998897;28;94202;-74
2022/04/29 04:58:55;;;;;;;14.65;7.30;;;;;;;;;;5009616;28;94845;-74
2022/04/29 05:01:22;;;;;;;17.20;7.38;;;;;;;;;;4998826;28;95339;-74
2022/04/29 05:04:07;;;;;;;10.52;6.63;;;;;;;;;;5016642;28;94007;-74
2022/04/29 05:06:52;;;;;;;15.43;6.00;;;;;;;;;;5020415;28;92699;-74
2022/04/29 05:09:19;;;;;;;15.65;5.95;;;;;;;;;;5015897;28;92315;-74
2022/04/29 05:11:45;;;;;;;12.20;6.47;;;;;;;;;;4997526;28;93137;-74
2022/04/29 05:15:01;;;;;;;15.90;6.18;;;;;;;;;;4973870;28;94617;-77
2022/04/29 05:17:29;;;;;;;14.70;7.07;;;;;;;;;;4995670;28;95135;-75
2022/04/29 05:20:15;;;;;;;19.38;7.28;;;;;;;;;;5016493;28;96761;-75
2022/04/29 05:22:45;;;;;;;17.30;7.40;;;;;;;;;;5005140;28;94429;-75
2022/04/29 05:25:11;;;;;;;13.27;6.82;;;;;;;;;;5011468;28;94309;-74
2022/04/29 05:27:56;;;;;;;13.20;6.65;;;;;;;;;;5016741;28;94312;-74
2022/04/29 05:30:30;;;;;;;15.30;6.63;;;;;;;;;;5015440;28;92880;-74
2022/04/29 05:33:15;;;;;;;14.93;6.82;;;;;;;;;;5011445;28;93105;-74
2022/04/29 05:36:16;;;;;;;7.32;4.88;;;;;;;;;;5016864;28;93038;-74
2022/04/29 05:44:32;;;;;;;12.20;7.43;;;;;;;;;;5011819;28;96830;-74
2022/04/29 05:46:59;;;;;;;12.98;7.30;;;;;;;;;;5013147;28;92943;-74
2022/04/29 05:49:25;;;;;;;12.63;6.80;;;;;;;;;;5017407;28;94227;-74
2022/04/29 05:51:52;;;;;;;15.55;7.57;;;;;;;;;;5003050;28;95762;-74
2022/04/29 05:54:21;;;;;;;14.25;7.05;;;;;;;;;;4995889;28;93326;-74
2022/04/29 05:56:48;;;;;;;16.38;6.53;;;;;;;;;;5003189;27;95663;-74
2022/04/29 05:59:16;;;;;;;11.25;7.25;;;;;;;;;;4999954;28;94223;-74
2022/04/29 06:01:57;;;;;;;13.82;7.28;;;;;;;;;;5002336;28;92977;-74
2022/04/29 06:04:32;;;;;;;7.80;7.03;;;;;;;;;;4994408;28;94708;-76
2022/04/29 06:06:59;;;;;;;14.93;7.38;;;;;;;;;;4998732;28;95310;-75
2022/04/29 06:09:25;;;;;;;17.48;7.28;;;;;;;;;;5016794;27;96201;-76
2022/04/29 06:11:53;;;;;;;12.80;6.60;;;;;;;;;;5000459;28;94014;-76
2022/04/29 06:14:30;;;;;;;12.70;7.10;;;;;;;;;;5012302;28;95336;-74
2022/04/29 06:17:15;;;;;;;11.93;6.63;;;;;;;;;;5009948;28;92737;-74
2022/04/29 06:19:59;;;;;;;15.98;7.10;;;;;;;;;;5011574;28;92499;-75
2022/04/29 06:22:32;;;;;;;10.90;6.57;;;;;;;;;;5012488;28;92853;-75
2022/04/29 06:24:59;;;;;;;9.23;6.22;;;;;;;;;;5017101;28;93205;-74
2022/04/29 06:27:36;;;;;;;17.55;6.45;;;;;;;;;;5016674;28;92357;-74
2022/04/29 06:30:02;;;;;;;17.30;6.95;;;;;;;;;;5030205;28;93483;-74
2022/04/29 06:32:46;;;;;;;17.52;6.82;;;;;;;;;;5018611;28;94558;-74
2022/04/29 06:35:20;;;;;;;15.50;6.53;;;;;;;;;;5017421;28;95335;-75
2022/04/29 06:37:48;;;;;;;28.15;7.47;;;;;;;;;;5020949;28;96379;-74
2022/04/29 06:40:43;;;;;;;16.52;5.30;;;;;;;;;;5036227;27;92461;-75
2022/04/29 06:43:10;;;;;;;21.40;7.20;;;;;;;;;;5018771;28;95711;-74
2022/04/29 06:46:11;;;;;;;10.70;6.13;;;;;;;;;;5021308;28;94015;-74
2022/04/29 06:48:44;;;;;;;11.57;6.43;;;;;;;;;;5017996;28;92846;-79
2022/04/29 06:51:16;;;;;;;12.05;5.65;;;;;;;;;;5018286;28;92685;-75
2022/04/29 06:53:46;;;;;;;15.95;6.50;;;;;;;;;;5005953;28;94816;-73
2022/04/29 06:56:17;;;;;;;15.60;5.32;;;;;;;;;;5006797;28;92804;-73
2022/04/29 06:58:43;;;;;;;14.38;7.00;;;;;;;;;;5015164;28;95754;-74
2022/04/29 07:01:17;;;;;;;18.38;6.63;;;;;;;;;;5019969;28;97487;-75
2022/04/29 07:03:44;;;;;;;14.65;7.13;;;;;;;;;;5050665;27;95297;-75
2022/04/29 07:06:11;;;;;;;13.85;5.60;;;;;;;;;;5037978;27;93278;-75
2022/04/29 07:08:37;;;;;;;11.57;5.25;;;;;;;;;;5038420;27;92393;-75
2022/04/29 07:11:04;;;;;;;21.58;6.28;;;;;;;;;;5056986;27;92960;-75
2022/04/29 07:13:42;;;;;;;15.38;5.93;;;;;;;;;;5053586;27;92931;-75
2022/04/29 07:16:10;;;;;;;11.73;6.47;;;;;;;;;;5038285;27;92502;-75
2022/04/29 07:18:54;;;;;;;23.55;5.97;;;;;;;;;;5056274;27;92553;-75
2022/04/29 07:21:21;;;;;;;25.20;6.00;;;;;;;;;;5020621;28;95946;-75
2022/04/29 07:23:47;;;;;;;9.50;5.68;;;;;;;;;;5020087;28;93380;-75
2022/04/29 07:26:15;;;;;;;28.30;5.85;;;;;;;;;;4995451;28;95793;-75
2022/04/29 07:28:41;;;;;;;6.25;4.82;;;;;;;;;;5015562;28;92471;-75
2022/04/29 07:31:09;;;;;;;13.63;5.95;;;;;;;;;;4997786;28;94764;-75
2022/04/29 07:33:54;;;;;;;18.10;6.35;;;;;;;;;;5014356;28;92795;-75
2022/04/29 07:42:12;;;;;;;14.85;4.45;;;;;;;;;;4998082;28;92660;-75
2022/04/29 07:44:38;;;;;;;17.30;5.63;;;;;;;;;;4999221;28;91789;-75
2022/04/29 07:47:09;;;;;;;12.32;5.63;;;;;;;;;;5000135;28;92953;-75
2022/04/29 07:49:46;;;;;;;10.77;6.20;;;;;;;;;;4997421;28;92568;-76
2022/04/29 07:52:17;;;;;;;9.77;5.70;;;;;;;;;;4996168;28;95539;-75
2022/04/29 07:54:43;;;;;;;13.52;5.95;;;;;;;;;;5001375;28;95787;-75
2022/04/29 07:57:10;;;;;;;14.77;5.45;;;;;;;;;;5006213;28;92506;-76
2022/04/29 07:59:37;;;;;;;10.55;4.85;;;;;;;;;;5014368;28;92953;-75
2022/04/29 08:02:27;;;;;;;10.38;6.00;;;;;;;;;;5012336;27;93881;-75
2022/04/29 08:04:54;;;;;;;18.13;6.57;;;;;;;;;;5043774;27;92824;-75
2022/04/29 08:07:20;;;;;;;11.43;5.43;;;;;;;;;;4997138;28;95023;-75
2022/04/29 08:09:47;;;;;;;11.07;5.57;;;;;;;;;;4999839;28;94785;-77
2022/04/29 08:12:13;;;;;;;9.23;4.80;;;;;;;;;;4997107;28;94827;-76
2022/04/29 08:15:03;;;;;;;12.00;6.03;;;;;;;;;;5013994;28;93088;-77
2022/04/29 08:18:03;;;;;;;11.80;5.35;;;;;;;;;;5004231;28;96342;-80
2022/04/29 08:20:30;;;;;;;9.90;5.25;;;;;;;;;;4996019;28;97090;-79
2022/04/29 08:22:57;;;;;;;12.73;5.88;;;;;;;;;;4995535;28;95358;-79
2022/04/29 08:25:25;;;;;;;6.70;4.50;;;;;;;;;;4996716;28;92761;-81
2022/04/29 08:27:51;;;;;;;12.20;5.22;;;;;;;;;;4997395;28;95086;-80
2022/04/29 08:30:20;;;;;;;11.05;4.65;;;;;;;;;;4999618;28;93379;-79
2022/04/29 08:32:47;;;;;;;10.40;6.32;;;;;;;;;;4997184;28;95204;-81
2022/04/29 08:35:25;;;;;;;5.95;5.35;;;;;;;;;;4998728;28;94790;-81
2022/04/29 08:37:54;;;;;;;12.23;5.53;;;;;;;;;;4996446;28;92563;-76
2022/04/29 08:40:27;;;;;;;6.07;4.95;;;;;;;;;;4997247;28;93628;-76
2022/04/29 08:42:55;;;;;;;7.20;4.95;;;;;;;;;;4994193;28;98186;-76
2022/04/29 08:45:22;;;;;;;6.95;5.00;;;;;;;;;;4996091;28;92447;-76
2022/04/29 08:47:59;;;;;;;11.27;5.55;;;;;;;;;;5012862;28;92997;-77
2022/04/29 08:50:31;;;;;;;11.05;4.93;;;;;;;;;;4995334;28;95288;-77
2022/04/29 08:52:57;;;;;;;12.25;4.63;;;;;;;;;;5017523;28;92435;-77
2022/04/29 09:00:58;;;;;;;12.13;6.43;;;;;;;;;;5014987;28;93526;-77
2022/04/29 09:03:25;;;;;;;6.82;5.53;;;;;;;;;;5036872;27;94280;-76
2022/04/29 09:05:52;;;;;;;9.45;5.80;;;;;;;;;;5054387;27;92430;-77
2022/04/29 09:08:20;;;;;;;14.77;6.32;;;;;;;;;;5052805;27;94860;-77
2022/04/29 09:10:51;;;;;;;10.35;5.95;;;;;;;;;;5043139;27;94292;-77
2022/04/29 09:13:35;;;;;;;18.25;7.38;;;;;;;;;;5018165;28;93436;-77
2022/04/29 09:16:06;;;;;;;10.95;5.38;;;;;;;;;;5017406;28;94014;-77
2022/04/29 09:18:34;;;;;;;;;;;;;;;;;;4995160;28;92822;-77
2022/04/29 09:21:07;;;;;;;9.68;5.40;;;;;;;;;;5014133;28;124407;-77
2022/04/29 09:23:36;;;;;;;8.95;5.18;;;;;;;;;;5019585;28;94051;-77
2022/04/29 09:26:24;;;;;;;9.60;5.63;;;;;;;;;;5033798;28;91725;-77
2022/04/29 09:29:12;;;;;;;14.60;5.30;;;;;;;;;;5032375;28;92490;-77
2022/04/29 09:31:53;;;;;;;11.35;5.93;;;;;;;;;;5015330;28;93439;-78
2022/04/29 09:34:58;;;;;;;8.68;5.53;;;;;;;;;;5009989;27;95071;-77
2022/04/29 09:37:28;;;;;;;11.10;4.90;;;;;;;;;;5033539;28;96280;-78
2022/04/29 09:40:02;;;;;;;12.35;6.15;;;;;;;;;;5018065;28;95096;-78
2022/04/29 09:42:36;;;;;;;10.00;6.17;;;;;;;;;;5033594;28;94063;-78
2022/04/29 09:45:12;;;;;;;13.95;6.75;;;;;;;;;;5014606;28;94204;-78
2022/04/29 09:47:39;;;;;;;6.25;5.57;;;;;;;;;;5012724;28;92901;-78
2022/04/29 09:50:05;;;;;;;14.05;6.05;;;;;;;;;;5013490;28;94436;-78
2022/04/29 09:52:37;;;;;;;7.32;5.93;;;;;;;;;;5013817;28;93557;-78
2022/04/29 09:55:11;;;;;;;16.73;6.43;;;;;;;;;;5013017;28;92910;-78
2022/04/29 09:57:48;;;;;;;11.40;5.88;;;;;;;;;;5012918;28;92880;-78
2022/04/29 10:00:14;;;;;;;16.45;6.10;;;;;;;;;;5010910;28;96833;-78
2022/04/29 10:02:41;;;;;;;15.23;6.30;;;;;;;;;;5016653;28;93162;-77
2022/04/29 10:05:09;;;;;;;13.45;5.82;;;;;;;;;;4995858;28;95307;-78
2022/04/29 10:07:39;;;;;;;8.10;5.53;;;;;;;;;;5001902;28;92658;-78
2022/04/29 10:10:08;;;;;;;6.90;5.07;;;;;;;;;;5034013;28;94096;-78
2022/04/29 10:12:35;;;;;;;10.65;5.95;;;;;;;;;;5033037;28;94240;-78
2022/04/29 10:15:21;;;;;;;11.43;5.53;;;;;;;;;;5031411;28;92428;-78
2022/04/29 10:23:42;;;;;;;11.75;5.55;;;;;;;;;;5032724;28;92524;-78
2022/04/29 10:26:09;;;;;;;7.82;4.72;;;;;;;;;;5034881;28;94876;-77
2022/04/29 10:28:35;;;;;;;11.90;4.82;;;;;;;;;;5016438;28;92992;-77
2022/04/29 10:31:05;;;;;;;15.60;5.75;;;;;;;;;;4994862;28;94912;-77
2022/04/29 10:33:32;;;;;;;10.07;4.65;;;;;;;;;;5011577;28;95007;-77
2022/04/29 10:36:06;;;;;;;8.10;4.30;;;;;;;;;;4998031;28;94002;-76
2022/04/29 10:38:37;;;;;;;10.52;4.60;;;;;;;;;;5020325;28;94157;-76
2022/04/29 10:41:07;;;;;;;6.75;4.35;;;;;;;;;;5018739;28;94154;-77
2022/04/29 10:43:40;;;;;;;6.68;4.50;;;;;;;;;;5012724;28;91730;-77
2022/04/29 10:46:06;;;;;;;7.63;5.07;;;;;;;;;;5020284;27;93120;-76
2022/04/29 10:48:46;;;;;;;9.80;4.15;;;;;;;;;;5016176;27;94053;-76
2022/04/29 10:51:29;;;;;;;7.88;4.15;;;;;;;;;;5013464;28;96778;-77
2022/04/29 10:54:33;;;;;;;6.75;4.30;;;;;;;;;;5014508;28;95456;-76
2022/04/29 10:57:41;;;;;;;8.80;4.10;;;;;;;;;;5000360;28;94054;-76
2022/04/29 11:00:13;;;;;;;7.80;4.55;;;;;;;;;;5000327;28;94295;-76
2022/04/29 11:02:43;;;;;;;5.28;3.90;;;;;;;;;;4991190;28;96297;-77
2022/04/29 11:05:30;;;;;;;7.43;5.25;;;;;;;;;;5021084;28;92584;-75
2022/04/29 11:08:06;;;;;;;8.38;4.15;;;;;;;;;;5019042;27;93727;-75
2022/04/29 11:10:58;;;;;;;3.85;3.30;;;;;;;;;;5016041;28;93370;-75
2022/04/29 11:13:30;;;;;;;;;;;;;;;;;;5000082;28;93830;-76
2022/04/29 11:16:26;;;;;;;9.32;3.67;;;;;;;;;;5013203;28;111840;-76
2022/04/29 11:19:14;;;;;;;11.18;4.30;;;;;;;;;;4985951;28;95060;-77
2022/04/29 11:24:42;;;;;;;10.13;4.65;;;;;;;;;;4999971;28;95847;-76
2022/04/29 11:27:25;;;;;;;5.72;3.80;;;;;;;;;;5002417;27;94179;-76
2022/04/29 11:29:56;;;;;;;11.52;4.10;;;;;;;;;;5003593;28;94874;-76
2022/04/29 11:32:31;;;;;;;14.88;4.18;;;;;;;;;;5018047;28;94727;-76
2022/04/29 11:35:00;;;;;;;9.00;4.13;;;;;;;;;;5016155;28;92704;-77
2022/04/29 11:37:27;;;;;;;8.85;4.07;;;;;;;;;;5014871;28;93177;-77
2022/04/29 11:39:54;;;;;;;6.85;3.17;;;;;;;;;;5025613;28;92496;-77
2022/04/29 11:42:21;;;;;;;9.40;4.05;;;;;;;;;;5016332;28;95591;-80
2022/04/29 11:44:49;;;;;;;9.07;4.43;;;;;;;;;;5017685;27;96442;-76
2022/04/29 11:47:17;;;;;;;10.73;3.90;;;;;;;;;;5022972;28;92494;-76
2022/04/29 11:49:44;;;;;;;5.80;4.63;;;;;;;;;;5024364;27;93404;-75
2022/04/29 11:52:16;;;;;;;6.53;4.47;;;;;;;;;;5027208;27;94471;-76
2022/04/29 11:54:52;;;;;;;13.10;4.32;;;;;;;;;;5013788;28;92844;-77
2022/04/29 11:57:19;;;;;;;10.57;4.38;;;;;;;;;;5020634;28;94535;-76
2022/04/29 11:59:46;;;;;;;8.32;4.53;;;;;;;;;;5029916;28;92968;-77
2022/04/29 12:02:16;;;;;;;8.25;4.47;;;;;;;;;;5022216;28;94129;-77
2022/04/29 12:04:53;;;;;;;6.07;4.75;;;;;;;;;;5013536;28;94422;-77
2022/04/29 12:07:20;;;;;;;5.45;4.53;;;;;;;;;;5023219;28;92724;-75
2022/04/29 12:09:47;;;;;;;8.52;5.22;;;;;;;;;;5015335;28;94960;-78
2022/04/29 12:12:27;;;;;;;4.85;4.40;;;;;;;;;;5035093;27;94302;-77
2022/04/29 12:14:55;;;;;;;6.43;4.97;;;;;;;;;;5034335;28;92945;-78
2022/04/29 12:17:35;;;;;;;5.32;4.82;;;;;;;;;;5026495;28;94098;-75
2022/04/29 12:20:02;;;;;;;7.88;5.28;;;;;;;;;;5016385;28;94238;-77
2022/04/29 12:22:30;;;;;;;6.35;5.07;;;;;;;;;;5013975;28;93989;-77
2022/04/29 12:24:58;;;;;;;11.73;5.45;;;;;;;;;;5014648;28;94361;-77
2022/04/29 12:27:29;;;;;;;5.85;5.25;;;;;;;;;;5023153;27;91760;-74
2022/04/29 12:35:32;;;;;;;6.32;5.00;;;;;;;;;;5010601;28;95088;-75
2022/04/29 12:37:58;;;;;;;6.57;4.95;;;;;;;;;;5031925;27;95580;-75
2022/04/29 12:40:42;;;;;;;7.18;4.95;;;;;;;;;;5036841;27;94131;-76
2022/04/29 12:43:12;;;;;;;11.43;5.18;;;;;;;;;;5024099;27;93791;-76
2022/04/29 12:45:39;;;;;;;10.65;5.85;;;;;;;;;;5014878;28;93284;-75
2022/04/29 12:48:26;;;;;;;4.93;3.60;;;;;;;;;;5039277;27;93847;-76
2022/04/29 12:50:53;;;;;;;8.68;4.80;;;;;;;;;;4997418;27;95167;-76
2022/04/29 12:53:19;;;;;;;7.95;5.45;;;;;;;;;;5017798;28;93461;-76
2022/04/29 12:55:46;;;;;;;10.05;5.30;;;;;;;;;;5022790;28;92421;-76
2022/04/29 12:58:16;;;;;;;6.95;4.80;;;;;;;;;;5015008;27;94035;-76
2022/04/29 13:00:44;;;;;;;7.45;4.82;;;;;;;;;;5022461;28;96063;-76
2022/04/29 13:03:18;;;;;;;5.25;4.60;;;;;;;;;;5020000;27;94855;-76
2022/04/29 13:05:46;;;;;;;9.32;4.82;;;;;;;;;;5008599;28;95213;-77
2022/04/29 13:08:13;;;;;;;5.22;4.55;;;;;;;;;;5015038;28;92366;-77
2022/04/29 13:10:40;;;;;;;7.45;5.95;;;;;;;;;;5013172;28;93275;-77
2022/04/29 13:13:07;;;;;;;7.45;4.32;;;;;;;;;;5014181;27;94502;-75
2022/04/29 13:15:33;;;;;;;18.13;5.32;;;;;;;;;;5013922;28;92484;-75
2022/04/29 13:18:00;;;;;;;6.18;4.68;;;;;;;;;;5013877;28;94656;-76
2022/04/29 13:20:26;;;;;;;12.50;5.55;;;;;;;;;;5017151;27;94138;-76
2022/04/29 13:22:53;;;;;;;9.73;4.97;;;;;;;;;;5002177;28;93033;-76
2022/04/29 13:25:21;;;;;;;7.35;4.80;;;;;;;;;;5015721;28;95775;-76
2022/04/29 13:27:47;;;;;;;9.25;4.43;;;;;;;;;;5008967;28;93007;-77
2022/04/29 13:30:14;;;;;;;8.70;4.50;;;;;;;;;;5016869;28;94030;-77
2022/04/29 13:32:41;;;;;;;7.88;5.57;;;;;;;;;;5012592;28;93387;-78
2022/04/29 13:35:08;;;;;;;17.65;5.40;;;;;;;;;;5018839;27;92461;-77
2022/04/29 13:37:36;;;;;;;6.32;5.10;;;;;;;;;;5013439;28;93026;-78
2022/04/29 13:40:02;;;;;;;10.20;4.95;;;;;;;;;;5015384;28;94343;-78
2022/04/29 13:42:29;;;;;;;11.55;4.60;;;;;;;;;;5023166;27;91748;-79
2022/04/29 13:44:56;;;;;;;16.27;5.53;;;;;;;;;;5015557;28;92607;-80
2022/04/29 13:47:24;;;;;;;4.80;3.75;;;;;;;;;;5013357;28;93096;-78
2022/04/29 13:49:50;;;;;;;5.63;3.80;;;;;;;;;;5012296;28;94932;-79
2022/04/29 13:55:02;;;;;;;7.22;3.92;;;;;;;;;;5033607;28;92512;-78
2022/04/29 13:57:28;;;;;;;4.43;4.03;;;;;;;;;;5033460;27;93004;-78
2022/04/29 13:59:55;;;;;;;6.03;4.13;;;;;;;;;;5032796;28;94273;-77
2022/04/29 14:02:21;;;;;;;4.82;4.43;;;;;;;;;;5020296;28;92604;-79
2022/04/29 14:04:48;;;;;;;6.13;4.70;;;;;;;;;;5013369;28;93795;-78
2022/04/29 14:07:15;;;;;;;4.43;3.85;;;;;;;;;;5013339;28;93695;-78
2022/04/29 14:09:41;;;;;;;8.38;4.57;;;;;;;;;;5019083;28;92509;-79
2022/04/29 14:12:11;;;;;;;6.82;4.40;;;;;;;;;;5012856;28;94698;-80
2022/04/29 14:14:38;;;;;;;5.53;4.28;;;;;;;;;;5009252;28;96268;-79
2022/04/29 14:17:05;;;;;;;8.00;4.57;;;;;;;;;;5012076;28;95757;-79
2022/04/29 14:19:32;;;;;;;9.13;4.30;;;;;;;;;;5012350;28;94514;-79
2022/04/29 14:21:58;;;;;;;11.07;4.55;;;;;;;;;;5012648;28;92959;-79
2022/04/29 14:24:25;;;;;;;15.73;4.22;;;;;;;;;;5012529;28;92459;-79
2022/04/29 14:26:51;;;;;;;5.93;4.00;;;;;;;;;;5021863;28;94069;-78
2022/04/29 14:29:18;;;;;;;5.45;3.88;;;;;;;;;;5052651;27;92468;-78
2022/04/29 14:31:44;;;;;;;4.00;3.70;;;;;;;;;;5056532;27;94338;-78
2022/04/29 14:34:10;;;;;;;8.85;4.07;;;;;;;;;;5031148;27;92499;-77
2022/04/29 14:36:37;;;;;;;5.30;3.92;;;;;;;;;;5011768;28;93096;-76
2022/04/29 14:39:03;;;;;;;6.10;3.70;;;;;;;;;;5011103;28;96426;-76
2022/04/29 14:41:30;;;;;;;5.65;4.15;;;;;;;;;;5018563;28;92633;-79
2022/04/29 14:43:57;;;;;;;4.40;4.00;;;;;;;;;;5034501;27;93861;-79
2022/04/29 14:46:25;;;;;;;8.77;4.05;;;;;;;;;;5035533;28;93445;-79
2022/04/29 14:48:51;;;;;;;5.10;4.00;;;;;;;;;;5018702;27;92882;-79
2022/04/29 14:51:18;;;;;;;9.93;4.57;;;;;;;;;;5018849;28;93286;-78
2022/04/29 14:53:44;;;;;;;12.65;4.35;;;;;;;;;;5026479;28;93453;-78
2022/04/29 14:56:10;;;;;;;4.63;4.13;;;;;;;;;;5034215;28;92921;-78
2022/04/29 14:58:37;;;;;;;4.88;4.40;;;;;;;;;;5016043;28;92536;-78
2022/04/29 15:01:03;;;;;;;5.03;3.95;;;;;;;;;;5016840;28;92427;-76
2022/04/29 15:03:30;;;;;;;8.98;4.35;;;;;;;;;;5014538;28;94948;-76
2022/04/29 15:05:56;;;;;;;10.70;4.00;;;;;;;;;;5017930;28;94382;-76
2022/04/29 15:08:23;;;;;;;6.43;4.30;;;;;;;;;;5015909;28;92454;-76
2022/04/29 15:16:20;;;;;;;6.68;3.97;;;;;;;;;;5017970;28;94007;-76
2022/04/29 15:18:47;;;;;;;5.25;3.70;;;;;;;;;;5014989;28;94324;-76
2022/04/29 15:21:14;;;;;;;4.90;4.03;;;;;;;;;;5015998;28;92449;-76
2022/04/29 15:23:40;;;;;;;11.93;3.67;;;;;;;;;;5015289;28;92567;-77
2022/04/29 15:26:06;;;;;;;4.45;3.70;;;;;;;;;;5015581;28;94946;-76
2022/04/29 15:28:33;;;;;;;4.18;3.60;;;;;;;;;;5041993;27;94921;-76
2022/04/29 15:31:06;;;;;;;4.30;3.88;;;;;;;;;;5055512;27;96393;-77
2022/04/29 15:33:33;;;;;;;10.40;3.70;;;;;;;;;;5055672;27;94262;-76
2022/04/29 15:35:59;;;;;;;4.72;4.20;;;;;;;;;;5059396;27;92407;-79
2022/04/29 15:38:25;;;;;;;9.88;3.85;;;;;;;;;;5054894;27;94179;-76
2022/04/29 15:40:53;;;;;;;6.45;3.85;;;;;;;;;;5035483;27;92547;-77